Airfield :
LOGIN :

Register | Disclaimer

   EN    FR    IT 

 










Legend :    VFR   Marginal VFR   IFR   Intensive IFR   Very Intensive IFR
Visi :
Ceiling :
>= 8 km
>= 3000ft
5 to 8 km
1000 to 3000 ft
1500m to 5 km
500 to 1000 ft
800 to 1500m
200 to 500 ft
< 800m
< 200 ft
Symbols :   Thunderstorms  Fog  Heavy snow  Heavy precipitations  Wind > 20 kt
SIGMETs :     Misc.  Thunderstorms  Icing  Turbulence  Mountain Waves  Volcanic Ashes







- Airport Elevation : 13 ft
- IATA code : CEQ
- Download approach charts


LFMD - Cannes Mandelieu

CURRENT METAR :
  • 191230Z AUTO 17005KT 110V220 CAVOK 32/15 Q1017 NOSIG

EXPIRED METARs :
  • 191200Z AUTO 17005KT 130V210 CAVOK 32/16 Q1017 NOSIG
  • 191130Z AUTO 18009KT CAVOK 31/16 Q1017 NOSIG
  • 191100Z AUTO 17007KT CAVOK 31/16 Q1017 NOSIG
  • 191030Z AUTO 17005KT 130V190 CAVOK 31/16 Q1017 NOSIG
  • 191000Z AUTO 16005KT 120V180 CAVOK 31/16 Q1017 NOSIG

TAF TAF LFMD
Valid from the 19 at 09:00 until the 20 at 09:00 UTC


190800Z 1909/2009 16006KT CAVOK
BECMG 1918/1920 VRB02KT
ATIS : +33 4 93 48 73 23
No reported NOTAMs for that airfield.
1 SIGMET reported for the Marseille FIR (LFMM) :
 
Embedded thunderstorms
LFMM SIGMET 5 VALID 191000/191300 LFPW
LFMM MARSEILLE FIR/UIR EMBD TS OBS WI N4115 E00800 - N3900 E00800 - N3900 E00430 - N4100 E00430 - N4200 E00800 - N4115 E00800 TOP FL380 STNR NC=



MET'MAP, your aeronautical weather chart ! - Copyright ORBIFLY December 2007 - Disclaimer

ORBIFLY MET'MAP TEAM :

Programming & Development : Alexandra Zaïnal
Concept & Development : Baudouin d'Aumeries
Co-Development & Prog : Marc-Olivier Méhu
Technical & hardware support : Manuel Goepfert

Contact : metmap@orbifly.com




SOURCES & CREDITS :

   NOAA